Time;durP1;ratioP1;P1;durP2;ratioP2;P2;SDS_P1;SDS_P2;PMS_P1;PMS_P2;Temp;Humidity;BMP_temperature;BMP_pressure;BME280_temperature;BME280_humidity;BME280_pressure;Samples;Min_cycle;Max_cycle;Signal;HPM_P1;HPM_P2
2021/12/15 00:01:24;;;;;;;17.83;14.55;;;6.50;99.90;;;;;;5073506;28;20115;-63
2021/12/15 00:03:49;;;;;;;19.75;15.40;;;6.50;99.90;;;;;;5072886;28;20035;-64
2021/12/15 00:06:18;;;;;;;22.15;17.23;;;6.50;99.90;;;;;;5073236;28;20036;-64
2021/12/15 00:08:50;;;;;;;19.65;16.25;;;6.50;99.90;;;;;;5072773;28;20420;-64
2021/12/15 00:11:17;;;;;;;20.55;16.85;;;6.40;99.90;;;;;;5073558;28;20029;-64
2021/12/15 00:13:45;;;;;;;26.30;18.30;;;6.40;99.90;;;;;;5072594;28;20037;-63
2021/12/15 00:16:12;;;;;;;24.83;18.67;;;6.40;99.90;;;;;;5072029;28;20036;-63
2021/12/15 00:18:41;;;;;;;24.42;19.00;;;6.40;99.90;;;;;;5072814;28;20086;-64
2021/12/15 00:21:09;;;;;;;23.52;19.10;;;6.40;99.90;;;;;;5073423;28;20052;-63
2021/12/15 00:23:35;;;;;;;30.88;20.08;;;6.40;99.90;;;;;;5073486;28;20032;-64
2021/12/15 00:26:01;;;;;;;26.30;19.00;;;6.40;99.90;;;;;;5072195;28;20388;-64
2021/12/15 00:28:27;;;;;;;25.52;19.73;;;6.40;99.90;;;;;;5071986;28;20115;-65
2021/12/15 00:30:52;;;;;;;25.42;19.70;;;6.40;99.90;;;;;;5072458;28;20100;-63
2021/12/15 00:33:18;;;;;;;28.23;19.70;;;6.40;99.90;;;;;;5072964;28;20126;-64
2021/12/15 00:35:44;;;;;;;25.73;20.88;;;6.40;99.90;;;;;;5072353;28;20397;-64
2021/12/15 00:38:10;;;;;;;29.77;21.13;;;6.40;99.90;;;;;;5073135;28;20025;-64
2021/12/15 00:40:37;;;;;;;29.25;20.90;;;6.40;99.90;;;;;;5073169;28;20033;-64
2021/12/15 00:43:03;;;;;;;23.73;19.33;;;6.40;99.90;;;;;;5072462;28;20078;-64
2021/12/15 00:45:29;;;;;;;25.55;19.25;;;6.30;99.90;;;;;;5072798;28;20066;-64
2021/12/15 00:47:55;;;;;;;25.67;19.85;;;6.30;99.90;;;;;;5072350;28;20123;-64
2021/12/15 00:50:23;;;;;;;23.35;18.60;;;6.30;99.90;;;;;;5072763;28;20031;-64
2021/12/15 00:52:49;;;;;;;22.85;18.67;;;6.30;99.90;;;;;;5072092;28;20032;-64
2021/12/15 00:55:19;;;;;;;26.67;19.25;;;6.20;99.90;;;;;;5081919;28;20024;-65
2021/12/15 00:57:44;;;;;;;24.98;20.02;;;6.30;99.90;;;;;;5092222;28;20020;-64
2021/12/15 01:00:20;;;;;;;25.85;20.08;;;6.30;99.90;;;;;;5093063;28;20422;-64
2021/12/15 01:02:47;;;;;;;28.08;20.67;;;6.30;99.90;;;;;;5092395;28;20024;-64
2021/12/15 01:05:14;;;;;;;25.27;19.42;;;6.30;99.90;;;;;;5089300;28;20023;-64
2021/12/15 01:07:41;;;;;;;24.35;19.08;;;6.30;99.90;;;;;;5092508;28;20439;-63
2021/12/15 01:10:10;;;;;;;24.35;18.77;;;6.30;99.90;;;;;;5092417;28;20020;-63
2021/12/15 01:20:27;;;;;;;24.52;18.00;;;6.30;99.90;;;;;;5092641;28;20031;-64
2021/12/15 01:22:55;;;;;;;25.40;18.55;;;6.30;99.90;;;;;;5091757;28;20020;-64
2021/12/15 01:25:38;;;;;;;21.77;16.17;;;6.30;99.90;;;;;;5090887;28;20031;-64
2021/12/15 01:28:05;;;;;;;20.65;17.58;;;6.30;99.90;;;;;;5091755;28;20051;-64
2021/12/15 01:30:35;;;;;;;21.65;17.55;;;6.30;99.90;;;;;;5091113;28;20059;-64
2021/12/15 01:33:02;;;;;;;21.50;18.20;;;6.30;99.90;;;;;;5091626;28;20024;-63
2021/12/15 01:35:33;;;;;;;23.20;18.58;;;6.30;99.90;;;;;;5091643;28;20028;-66
2021/12/15 01:37:58;;;;;;;21.33;17.90;;;6.30;99.90;;;;;;5091672;28;20075;-64
2021/12/15 01:40:38;;;;;;;20.35;17.92;;;6.20;99.90;;;;;;5091880;28;20704;-64
2021/12/15 01:43:47;;;;;;;18.52;16.15;;;6.30;99.90;;;;;;5091168;28;20303;-64
2021/12/15 01:49:04;;;;;;;21.23;17.58;;;6.30;99.90;;;;;;5091275;28;20109;-64
2021/12/15 01:51:30;;;;;;;18.75;16.75;;;6.30;99.90;;;;;;5091922;28;20077;-64
2021/12/15 01:53:56;;;;;;;19.73;17.17;;;6.20;99.90;;;;;;5091198;28;20119;-64
2021/12/15 01:56:22;;;;;;;19.90;17.55;;;6.30;99.90;;;;;;5091708;28;20476;-64
2021/12/15 01:58:48;;;;;;;21.80;17.73;;;6.30;99.90;;;;;;5091254;28;20035;-64
2021/12/15 02:01:14;;;;;;;21.27;17.48;;;6.30;99.90;;;;;;5091904;28;20032;-64
2021/12/15 02:03:40;;;;;;;19.83;17.17;;;6.30;99.90;;;;;;5091632;28;20026;-64
2021/12/15 02:06:08;;;;;;;20.63;17.98;;;6.20;99.90;;;;;;5089898;28;20348;-64
2021/12/15 02:08:33;;;;;;;20.13;17.02;;;6.30;99.90;;;;;;5088739;28;20017;-64
2021/12/15 02:11:00;;;;;;;21.23;18.02;;;6.30;99.90;;;;;;5080419;28;20107;-64
2021/12/15 02:13:26;;;;;;;19.77;17.48;;;6.30;99.90;;;;;;5082093;28;20032;-64
2021/12/15 02:15:57;;;;;;;24.45;18.08;;;6.30;99.90;;;;;;5081545;28;20099;-64
2021/12/15 02:18:28;;;;;;;22.02;18.00;;;6.30;99.90;;;;;;5078074;28;20021;-64
2021/12/15 02:21:19;;;;;;;23.02;18.13;;;6.30;99.90;;;;;;5076636;28;20107;-64
2021/12/15 02:23:52;;;;;;;19.85;17.65;;;6.30;99.90;;;;;;5076800;28;20044;-64
2021/12/15 02:26:23;;;;;;;22.23;18.17;;;6.40;99.90;;;;;;5078266;28;20050;-64
2021/12/15 02:28:54;;;;;;;19.65;17.55;;;6.30;99.90;;;;;;5087326;28;20047;-64
2021/12/15 02:31:33;;;;;;;22.52;17.38;;;6.40;99.90;;;;;;5091778;28;20059;-63
2021/12/15 02:34:57;;;;;;;21.15;18.33;;;6.40;99.90;;;;;;5090782;28;20119;-63
2021/12/15 02:37:17;;;;;;;19.08;16.88;;;6.40;99.90;;;;;;5080370;28;20068;-63
2021/12/15 02:39:59;;;;;;;20.58;17.50;;;6.40;99.90;;;;;;5091217;28;20036;-63
2021/12/15 02:42:26;;;;;;;;;;;6.40;99.90;;;;;;5091757;28;20587;-62
2021/12/15 02:44:52;;;;;;;16.80;14.82;;;6.40;99.90;;;;;;5090905;28;19939;-64
2021/12/15 02:47:23;;;;;;;16.95;15.20;;;6.40;99.90;;;;;;5073780;28;20098;-62
2021/12/15 02:49:51;;;;;;;16.52;14.75;;;6.40;99.90;;;;;;5071304;28;20020;-62
2021/12/15 02:52:17;;;;;;;17.50;15.60;;;6.50;99.90;;;;;;5070811;28;20036;-62
2021/12/15 02:54:42;;;;;;;17.88;15.65;;;6.50;99.90;;;;;;5081441;28;20025;-63
2021/12/15 02:57:13;;;;;;;17.10;15.20;;;6.40;99.90;;;;;;5079418;28;20450;-63
2021/12/15 02:59:57;;;;;;;16.13;14.50;;;6.40;99.90;;;;;;5084486;28;20058;-63
2021/12/15 03:05:13;;;;;;;16.63;14.32;;;6.40;99.90;;;;;;5074250;28;20349;-62
2021/12/15 03:15:44;;;;;;;15.23;13.15;;;6.50;99.90;;;;;;5074596;28;20086;-63
2021/12/15 03:18:18;;;;;;;15.45;13.52;;;6.50;99.90;;;;;;5073516;28;20025;-63
2021/12/15 03:20:54;;;;;;;16.20;14.50;;;6.50;99.90;;;;;;5074348;28;20028;-63
2021/12/15 03:23:31;;;;;;;15.45;13.85;;;6.50;99.90;;;;;;5074418;28;20033;-63
2021/12/15 03:25:58;;;;;;;15.73;13.57;;;6.50;99.90;;;;;;5073789;28;20029;-63
2021/12/15 03:37:43;;;;;;;15.55;12.20;;;6.50;99.90;;;;;;5074343;28;20032;-64
2021/12/15 03:39:44;;;;;;;13.85;12.43;;;6.50;99.90;;;;;;5068908;28;20155;-62
2021/12/15 03:42:13;;;;;;;13.05;11.75;;;6.50;99.90;;;;;;5073464;28;20043;-63
2021/12/15 03:44:41;;;;;;;13.98;11.85;;;6.50;99.90;;;;;;5074160;28;20157;-63
2021/12/15 03:47:10;;;;;;;13.07;11.20;;;6.50;99.90;;;;;;5071583;28;20056;-63
2021/12/15 03:49:36;;;;;;;12.48;11.00;;;6.50;99.90;;;;;;5073601;28;20024;-63
2021/12/15 03:52:05;;;;;;;11.60;10.40;;;6.50;99.90;;;;;;5073169;28;20024;-64
2021/12/15 03:54:30;;;;;;;10.52;9.52;;;6.50;99.90;;;;;;5073646;28;20079;-64
2021/12/15 03:56:56;;;;;;;11.35;10.25;;;6.50;99.90;;;;;;5073063;28;20036;-64
2021/12/15 03:59:24;;;;;;;10.55;9.55;;;6.50;99.90;;;;;;5073725;28;20033;-63
2021/12/15 04:01:49;;;;;;;10.90;9.80;;;6.40;99.90;;;;;;5073702;28;20025;-63
2021/12/15 04:04:15;;;;;;;9.57;8.60;;;6.40;99.90;;;;;;5072439;28;20465;-63
2021/12/15 04:06:42;;;;;;;10.18;9.18;;;6.40;99.90;;;;;;5073517;28;20493;-64
2021/12/15 04:09:11;;;;;;;9.90;8.90;;;6.40;99.90;;;;;;5073245;28;20132;-62
2021/12/15 04:11:37;;;;;;;10.63;9.60;;;6.40;99.90;;;;;;5073427;28;20461;-63
2021/12/15 04:14:08;;;;;;;9.50;8.60;;;6.40;99.90;;;;;;5072792;28;20107;-63
2021/12/15 04:19:06;;;;;;;9.60;8.60;;;6.40;99.90;;;;;;5072727;28;20120;-63
2021/12/15 04:21:32;;;;;;;10.13;8.85;;;6.40;99.90;;;;;;5073553;28;20409;-62
2021/12/15 04:23:58;;;;;;;10.30;9.05;;;6.40;99.90;;;;;;5072424;28;20087;-62
2021/12/15 04:26:25;;;;;;;9.93;8.93;;;6.40;99.90;;;;;;5073156;28;20036;-63
2021/12/15 04:28:51;;;;;;;9.05;8.15;;;6.40;99.90;;;;;;5073479;28;20036;-63
2021/12/15 04:31:22;;;;;;;9.48;8.48;;;6.40;99.90;;;;;;5072173;28;20478;-63
2021/12/15 04:33:55;;;;;;;9.23;8.38;;;6.40;99.90;;;;;;5072865;28;20028;-63
2021/12/15 04:36:27;;;;;;;9.05;8.15;;;6.40;99.90;;;;;;5072343;28;20024;-62
2021/12/15 04:38:53;;;;;;;9.48;8.57;;;6.40;99.90;;;;;;5072688;28;20480;-63
2021/12/15 04:41:20;;;;;;;9.88;8.38;;;6.40;99.90;;;;;;5080724;28;20031;-63
2021/12/15 04:43:57;;;;;;;10.80;8.48;;;6.40;99.90;;;;;;5093115;28;20024;-63
2021/12/15 04:46:25;;;;;;;10.27;8.63;;;6.40;99.90;;;;;;5092516;28;20031;-64
2021/12/15 04:48:52;;;;;;;8.55;7.70;;;6.40;99.90;;;;;;5093043;28;20024;-63
2021/12/15 04:51:18;;;;;;;8.90;7.93;;;6.40;99.90;;;;;;5092053;28;20496;-63
2021/12/15 04:53:44;;;;;;;9.05;8.18;;;6.40;99.90;;;;;;5092863;28;20016;-63
2021/12/15 04:56:11;;;;;;;10.15;8.48;;;6.40;99.90;;;;;;5092279;28;20028;-64
2021/12/15 04:58:37;;;;;;;10.27;8.52;;;6.40;99.90;;;;;;5092759;28;20028;-63
2021/12/15 05:01:07;;;;;;;9.82;8.82;;;6.40;99.90;;;;;;5092130;28;20030;-63
2021/12/15 05:03:33;;;;;;;10.15;8.85;;;6.40;99.90;;;;;;5092967;28;20081;-63
2021/12/15 05:05:59;;;;;;;9.55;8.55;;;6.40;99.90;;;;;;5089621;28;20469;-63
2021/12/15 05:08:24;;;;;;;9.43;8.52;;;6.40;99.90;;;;;;5092328;28;20049;-63
2021/12/15 05:10:54;;;;;;;9.07;8.02;;;6.50;99.90;;;;;;5087636;28;20024;-64
2021/12/15 05:13:20;;;;;;;10.10;9.10;;;6.50;99.90;;;;;;5091349;28;20253;-63
2021/12/15 05:15:46;;;;;;;9.10;8.18;;;6.50;99.90;;;;;;5091887;28;20036;-64
2021/12/15 05:18:12;;;;;;;9.25;8.13;;;6.50;99.90;;;;;;5091515;28;20436;-63
2021/12/15 05:20:45;;;;;;;9.10;8.02;;;6.50;99.90;;;;;;5091720;28;20125;-63
2021/12/15 05:23:13;;;;;;;8.98;7.80;;;6.50;99.90;;;;;;5091590;28;20016;-63
2021/12/15 05:25:39;;;;;;;9.02;8.05;;;6.50;99.90;;;;;;5092087;28;20058;-64
2021/12/15 05:28:05;;;;;;;10.65;7.57;;;6.50;99.90;;;;;;5091342;28;20437;-64
2021/12/15 05:30:31;;;;;;;10.40;8.57;;;6.40;99.90;;;;;;5092078;28;20464;-64
2021/12/15 05:32:57;;;;;;;9.40;8.50;;;6.50;99.90;;;;;;5090708;28;20028;-64
2021/12/15 05:35:24;;;;;;;8.80;7.93;;;6.50;99.90;;;;;;5091532;28;20379;-64
2021/12/15 05:37:53;;;;;;;8.98;8.15;;;6.40;99.90;;;;;;5092039;28;20046;-63
2021/12/15 05:40:19;;;;;;;9.43;8.52;;;6.50;99.90;;;;;;5091528;28;20506;-64
2021/12/15 05:42:45;;;;;;;9.55;8.27;;;6.50;99.90;;;;;;5091536;28;20548;-63
2021/12/15 05:45:12;;;;;;;11.13;8.30;;;6.50;99.90;;;;;;5091451;28;20052;-63
2021/12/15 05:47:38;;;;;;;9.60;8.63;;;6.50;99.90;;;;;;5091919;28;20476;-64
2021/12/15 05:50:09;;;;;;;9.30;8.38;;;6.50;99.90;;;;;;5091504;28;20052;-64
2021/12/15 05:52:53;;;;;;;10.07;8.95;;;6.50;99.90;;;;;;5091815;28;20047;-63
2021/12/15 05:55:19;;;;;;;9.65;8.65;;;6.50;99.90;;;;;;5091330;28;20081;-63
2021/12/15 05:57:46;;;;;;;13.18;9.77;;;6.50;99.90;;;;;;5091598;28;20028;-64
2021/12/15 06:00:17;;;;;;;10.75;8.95;;;6.50;99.90;;;;;;5090948;28;20457;-63
2021/12/15 06:02:43;;;;;;;10.90;9.80;;;6.50;99.90;;;;;;5091701;28;20051;-63
2021/12/15 06:05:10;;;;;;;10.63;9.63;;;6.50;99.90;;;;;;5091147;28;20024;-65
2021/12/15 06:07:38;;;;;;;12.57;10.60;;;6.50;99.90;;;;;;5091347;28;20087;-64
2021/12/15 06:10:06;;;;;;;11.15;9.95;;;6.50;99.90;;;;;;5091167;28;20391;-64
2021/12/15 06:12:32;;;;;;;11.20;10.00;;;6.60;99.90;;;;;;5090490;28;20027;-64
2021/12/15 06:14:58;;;;;;;11.02;9.68;;;6.60;99.90;;;;;;5090114;28;20107;-63
2021/12/15 06:17:26;;;;;;;13.13;10.45;;;6.60;99.90;;;;;;5089251;28;20089;-64
2021/12/15 06:19:55;;;;;;;10.80;9.70;;;6.60;99.90;;;;;;5089958;28;20028;-64
2021/12/15 06:22:26;;;;;;;11.90;10.63;;;6.60;99.90;;;;;;5089179;28;20030;-64
2021/12/15 06:24:56;;;;;;;11.05;9.90;;;6.60;99.90;;;;;;5090069;28;20107;-64
2021/12/15 06:27:23;;;;;;;11.60;10.40;;;6.60;99.90;;;;;;5089498;28;20124;-64
2021/12/15 06:29:51;;;;;;;10.77;9.68;;;6.60;99.90;;;;;;5093903;28;20027;-64
2021/12/15 06:32:18;;;;;;;12.40;10.75;;;6.70;99.90;;;;;;5093713;28;20449;-64
2021/12/15 06:34:44;;;;;;;11.95;10.63;;;6.70;99.90;;;;;;5094038;28;20020;-64
2021/12/15 06:37:10;;;;;;;12.27;11.02;;;6.70;99.90;;;;;;5093603;28;20032;-62
2021/12/15 06:39:54;;;;;;;13.27;11.23;;;6.70;99.90;;;;;;5095328;28;20047;-64
2021/12/15 06:42:20;;;;;;;13.70;11.20;;;6.70;99.90;;;;;;5094871;28;20055;-64
2021/12/15 06:44:47;;;;;;;14.00;11.73;;;6.70;99.90;;;;;;5095198;28;20063;-64
2021/12/15 06:58:11;;;;;;;18.77;13.25;;;6.80;99.90;;;;;;5094409;28;20027;-64
2021/12/15 07:00:44;;;;;;;15.32;13.02;;;6.80;99.90;;;;;;5095042;28;20024;-65
2021/12/15 07:03:10;;;;;;;14.60;12.90;;;6.80;99.90;;;;;;5094517;28;20040;-65
2021/12/15 07:05:36;;;;;;;14.73;12.82;;;6.80;99.90;;;;;;5094806;28;20028;-64
2021/12/15 07:08:04;;;;;;;14.25;12.55;;;6.80;99.90;;;;;;5094632;28;20039;-63
2021/12/15 07:10:33;;;;;;;15.23;13.50;;;6.80;99.90;;;;;;5094570;28;20059;-64
2021/12/15 07:12:59;;;;;;;14.73;13.10;;;6.80;99.90;;;;;;5091118;28;20480;-64
2021/12/15 07:15:26;;;;;;;14.93;13.18;;;6.80;99.90;;;;;;5093752;28;20491;-64
2021/12/15 07:18:00;;;;;;;15.63;13.88;;;6.90;99.90;;;;;;5094771;28;20114;-64
2021/12/15 07:22:56;;;;;;;16.98;14.43;;;6.90;99.90;;;;;;5094672;28;20107;-64
2021/12/15 07:25:22;;;;;;;16.15;13.82;;;6.90;99.90;;;;;;5093923;28;20035;-63
2021/12/15 07:27:48;;;;;;;17.80;14.30;;;6.90;99.90;;;;;;5094293;28;20408;-63
2021/12/15 07:30:15;;;;;;;16.23;13.13;;;6.90;99.90;;;;;;5093886;28;20032;-64
2021/12/15 07:32:41;;;;;;;16.45;12.35;;;7.00;99.90;;;;;;5094106;28;20472;-64
2021/12/15 07:35:08;;;;;;;14.45;11.65;;;7.00;99.90;;;;;;5094748;28;20024;-64
2021/12/15 07:37:34;;;;;;;16.70;11.50;;;7.00;99.90;;;;;;5093749;28;20082;-64
2021/12/15 07:40:03;;;;;;;14.60;11.32;;;7.00;99.90;;;;;;5093505;28;20024;-64
2021/12/15 07:42:36;;;;;;;12.02;10.82;;;7.00;99.90;;;;;;5093711;28;20102;-64
2021/12/15 07:45:05;;;;;;;12.15;10.75;;;7.00;99.90;;;;;;5094453;28;20032;-64
2021/12/15 07:47:31;;;;;;;13.63;10.88;;;7.00;99.90;;;;;;5093393;28;20050;-64
2021/12/15 07:50:00;;;;;;;14.68;11.43;;;7.00;99.90;;;;;;5094227;28;20028;-65
2021/12/15 07:52:27;;;;;;;16.55;11.35;;;6.90;99.90;;;;;;5093470;28;20074;-63
2021/12/15 07:54:53;;;;;;;15.75;10.90;;;6.90;99.90;;;;;;5093779;28;20051;-63
2021/12/15 07:57:20;;;;;;;13.40;11.27;;;6.90;99.90;;;;;;5093256;28;20028;-64
2021/12/15 07:59:47;;;;;;;12.52;10.27;;;6.90;99.90;;;;;;5093673;28;20453;-63
2021/12/15 08:02:13;;;;;;;12.55;10.30;;;6.90;99.90;;;;;;5093949;28;20055;-63
2021/12/15 08:04:38;;;;;;;12.90;11.13;;;6.90;99.90;;;;;;5093410;28;20027;-64
2021/12/15 08:07:04;;;;;;;12.73;11.13;;;6.90;99.90;;;;;;5093539;28;20028;-64
2021/12/15 08:09:30;;;;;;;11.70;10.43;;;6.90;99.90;;;;;;5093061;28;20028;-64
2021/12/15 08:11:56;;;;;;;13.68;10.35;;;6.90;99.90;;;;;;5093572;28;20051;-64
2021/12/15 08:14:22;;;;;;;13.23;9.80;;;6.90;99.90;;;;;;5092681;28;20388;-64
2021/12/15 08:16:48;;;;;;;11.85;10.63;;;6.90;99.90;;;;;;5093799;28;20039;-64
2021/12/15 08:19:16;;;;;;;11.77;10.45;;;6.90;99.90;;;;;;5093521;28;20020;-64
2021/12/15 08:21:43;;;;;;;13.73;10.20;;;7.00;99.90;;;;;;5093346;28;20059;-64
2021/12/15 08:24:09;;;;;;;12.60;10.57;;;7.00;99.90;;;;;;5093499;28;20027;-64
2021/12/15 08:26:35;;;;;;;11.15;9.65;;;7.00;99.90;;;;;;5092452;28;20257;-64
2021/12/15 08:29:01;;;;;;;13.00;10.60;;;7.10;99.90;;;;;;5093017;28;20366;-64
2021/12/15 08:31:26;;;;;;;12.93;10.55;;;7.10;99.90;;;;;;5092665;28;20380;-64
2021/12/15 08:33:52;;;;;;;12.10;10.77;;;7.10;99.90;;;;;;5093173;28;20024;-64
2021/12/15 08:36:18;;;;;;;15.60;11.30;;;7.20;99.90;;;;;;5092352;28;20024;-64
2021/12/15 08:38:47;;;;;;;12.98;10.93;;;7.20;99.90;;;;;;5093044;28;20479;-64
2021/12/15 08:41:21;;;;;;;12.85;10.02;;;7.20;99.90;;;;;;5093482;28;20119;-64
2021/12/15 08:43:48;;;;;;;13.10;11.27;;;7.30;99.90;;;;;;5093136;28;20099;-64
2021/12/15 08:46:29;;;;;;;15.90;11.80;;;7.30;99.90;;;;;;5092671;28;20097;-64
2021/12/15 08:48:55;;;;;;;14.50;11.80;;;7.30;99.90;;;;;;5093116;28;20075;-64
2021/12/15 08:51:25;;;;;;;13.27;11.25;;;7.30;99.90;;;;;;5091563;28;20020;-64
2021/12/15 08:53:58;;;;;;;14.98;11.27;;;7.30;99.90;;;;;;5092983;28;20028;-65
2021/12/15 08:56:24;;;;;;;13.27;11.32;;;7.40;99.90;;;;;;5092341;28;20445;-64
2021/12/15 08:58:50;;;;;;;13.57;11.00;;;7.40;99.90;;;;;;5092803;28;20048;-64
2021/12/15 09:01:16;;;;;;;14.55;11.57;;;7.40;99.90;;;;;;5085485;28;20063;-64
2021/12/15 09:03:43;;;;;;;13.63;11.70;;;7.40;99.90;;;;;;5071897;28;20027;-63
2021/12/15 09:06:10;;;;;;;15.10;11.10;;;7.40;99.90;;;;;;5072362;28;20041;-64
2021/12/15 09:08:35;;;;;;;17.02;11.95;;;7.40;99.90;;;;;;5071648;28;20153;-63
2021/12/15 09:11:05;;;;;;;17.20;12.23;;;7.40;99.90;;;;;;5072372;28;20477;-64
2021/12/15 09:13:32;;;;;;;13.90;11.43;;;7.40;99.90;;;;;;5074173;28;20027;-64
2021/12/15 09:16:08;;;;;;;15.30;12.55;;;7.40;99.90;;;;;;5072152;28;20115;-64
2021/12/15 09:18:35;;;;;;;13.68;11.70;;;7.40;99.90;;;;;;5071422;28;20024;-64
2021/12/15 09:21:01;;;;;;;13.70;12.25;;;7.40;99.90;;;;;;5071969;28;20028;-64
2021/12/15 09:23:27;;;;;;;13.68;12.18;;;7.40;99.90;;;;;;5071108;28;20491;-64
2021/12/15 09:25:54;;;;;;;14.77;11.70;;;7.40;99.90;;;;;;5072037;28;20036;-64
2021/12/15 09:28:19;;;;;;;14.45;11.35;;;7.40;99.90;;;;;;5071708;28;20090;-64
2021/12/15 09:30:48;;;;;;;13.35;11.88;;;7.40;99.90;;;;;;5071736;28;20427;-63
2021/12/15 09:33:19;;;;;;;13.40;11.73;;;7.40;99.90;;;;;;5071874;28;20036;-65
2021/12/15 09:35:45;;;;;;;;;;;7.40;99.90;;;;;;5072162;28;20028;-64
2021/12/15 09:38:13;;;;;;;15.23;11.55;;;7.40;99.90;;;;;;5071645;28;19987;-64
2021/12/15 09:40:40;;;;;;;14.77;12.23;;;7.40;99.90;;;;;;5071248;28;20016;-65
2021/12/15 09:43:06;;;;;;;17.15;12.63;;;7.40;99.90;;;;;;5071987;28;20058;-64
2021/12/15 09:45:47;;;;;;;19.83;13.02;;;7.40;99.90;;;;;;5070690;28;20027;-64
2021/12/15 10:17:42;;;;;;;14.77;11.40;;;7.40;99.90;;;;;;5075147;28;20267;-64
2021/12/15 10:20:14;;;;;;;12.77;10.40;;;7.40;99.90;;;;;;5075661;28;20025;-64
2021/12/15 10:22:44;;;;;;;12.60;10.55;;;7.40;99.90;;;;;;5074922;28;20025;-64
2021/12/15 10:25:32;;;;;;;12.10;10.75;;;7.40;99.90;;;;;;5075538;28;20107;-64
2021/12/15 10:28:04;;;;;;;11.88;9.88;;;7.40;99.90;;;;;;5075493;28;20086;-64
2021/12/15 10:30:38;;;;;;;12.13;10.60;;;7.40;99.90;;;;;;5074435;28;20028;-64
2021/12/15 10:33:12;;;;;;;14.07;10.13;;;7.40;99.90;;;;;;5075484;28;20101;-64
2021/12/15 10:35:48;;;;;;;12.32;9.85;;;7.50;99.90;;;;;;5074547;28;20025;-64
2021/12/15 10:38:30;;;;;;;10.35;9.27;;;7.50;99.90;;;;;;5075501;28;20051;-65
2021/12/15 10:41:01;;;;;;;12.13;10.10;;;7.50;99.90;;;;;;5075332;28;20090;-64
2021/12/15 10:43:50;;;;;;;10.82;9.57;;;7.50;99.90;;;;;;5074621;28;20028;-63
2021/12/15 10:46:23;;;;;;;10.57;9.43;;;7.50;99.90;;;;;;5074729;28;20112;-64
2021/12/15 10:48:49;;;;;;;12.98;9.38;;;7.50;99.90;;;;;;5074491;28;20126;-64
2021/12/15 10:51:29;;;;;;;9.90;8.73;;;7.50;99.90;;;;;;5075026;28;20469;-64
2021/12/15 10:53:58;;;;;;;10.43;9.05;;;7.40;99.90;;;;;;5075168;28;20263;-63
2021/12/15 10:56:29;;;;;;;9.48;8.20;;;7.50;99.90;;;;;;5074935;28;20385;-63
2021/12/15 10:58:57;;;;;;;;;;;7.40;99.90;;;;;;5075238;28;20024;-64
2021/12/15 11:01:31;;;;;;;10.73;9.05;;;7.40;99.90;;;;;;5082625;28;19911;-64
2021/12/15 11:04:00;;;;;;;10.90;9.45;;;7.40;99.90;;;;;;5090300;28;20120;-64
2021/12/15 11:06:32;;;;;;;9.82;8.68;;;7.40;99.90;;;;;;5074563;28;20503;-63
2021/12/15 11:09:16;;;;;;;9.93;8.88;;;7.40;99.90;;;;;;5074711;28;20032;-64
2021/12/15 11:12:05;;;;;;;11.18;8.73;;;7.40;99.90;;;;;;5073932;28;20032;-63
2021/12/15 11:14:37;;;;;;;15.00;8.73;;;7.40;99.90;;;;;;5072528;28;20377;-64
2021/12/15 11:17:03;;;;;;;9.90;8.55;;;7.40;99.90;;;;;;5074380;28;20473;-64
2021/12/15 11:19:41;;;;;;;12.95;9.55;;;7.40;99.90;;;;;;5073810;28;20075;-63
2021/12/15 11:22:40;;;;;;;10.43;8.55;;;7.40;99.90;;;;;;5074541;28;20100;-64
2021/12/15 11:25:28;;;;;;;11.40;10.20;;;7.40;99.90;;;;;;5074328;28;20483;-64
2021/12/15 11:28:15;;;;;;;11.27;9.65;;;7.40;99.90;;;;;;5074414;28;20029;-64
2021/12/15 11:30:49;;;;;;;10.55;8.73;;;7.40;99.90;;;;;;5073644;28;20025;-64
2021/12/15 11:33:22;;;;;;;11.82;9.07;;;7.40;99.90;;;;;;5074242;28;20021;-64
2021/12/15 11:36:31;;;;;;;11.55;9.60;;;7.40;99.90;;;;;;5073590;28;20096;-65
2021/12/15 11:39:08;;;;;;;14.00;9.93;;;7.40;99.90;;;;;;5065339;28;20485;-64
2021/12/15 11:41:43;;;;;;;10.40;9.02;;;7.40;99.90;;;;;;5073507;28;20166;-63
2021/12/15 11:44:16;;;;;;;11.00;9.23;;;7.40;99.90;;;;;;5074085;28;20056;-64
2021/12/15 11:46:43;;;;;;;14.23;9.63;;;7.40;99.90;;;;;;5073179;28;20541;-64
2021/12/15 11:49:15;;;;;;;15.68;9.20;;;7.40;99.90;;;;;;5074016;28;20055;-64
2021/12/15 11:51:53;;;;;;;10.80;9.10;;;7.40;99.90;;;;;;5072979;28;20052;-63
2021/12/15 11:54:44;;;;;;;11.38;9.15;;;7.40;99.90;;;;;;5073871;28;20055;-63
2021/12/15 11:57:30;;;;;;;12.23;8.63;;;7.40;99.90;;;;;;5073956;28;20530;-63
2021/12/15 12:00:21;;;;;;;11.40;9.48;;;7.40;99.90;;;;;;5073792;28;20041;-63
2021/12/15 12:02:54;;;;;;;9.40;8.43;;;7.40;99.90;;;;;;5073068;28;20059;-64
2021/12/15 12:05:37;;;;;;;12.57;9.32;;;7.50;99.90;;;;;;5073720;28;20137;-64
2021/12/15 12:08:11;;;;;;;11.00;9.40;;;7.50;99.90;;;;;;5073228;28;20127;-64
2021/12/15 12:10:49;;;;;;;11.07;8.55;;;7.50;99.90;;;;;;5072932;28;20029;-63
2021/12/15 12:13:25;;;;;;;12.93;9.20;;;7.50;99.90;;;;;;5073345;28;20035;-63
2021/12/15 12:15:55;;;;;;;11.70;9.32;;;7.50;99.90;;;;;;5072714;28;20046;-63
2021/12/15 12:18:27;;;;;;;12.43;8.85;;;7.50;99.90;;;;;;5073402;28;20446;-63
2021/12/15 12:20:57;;;;;;;10.85;8.38;;;7.60;99.90;;;;;;5072624;28;20133;-62
2021/12/15 12:23:27;;;;;;;10.50;7.82;;;7.60;99.90;;;;;;5072906;28;20495;-63
2021/12/15 12:26:05;;;;;;;12.07;8.65;;;7.60;99.90;;;;;;5072555;28;20208;-64
2021/12/15 12:28:43;;;;;;;12.95;8.57;;;7.60;99.90;;;;;;5072889;28;20111;-64
2021/12/15 12:31:15;;;;;;;12.00;8.63;;;7.60;99.90;;;;;;5072931;28;20082;-64
2021/12/15 12:33:41;;;;;;;12.25;9.07;;;7.70;99.90;;;;;;5072297;28;20020;-64
2021/12/15 12:36:14;;;;;;;10.43;8.98;;;7.70;99.90;;;;;;5073018;28;20089;-64
2021/12/15 12:38:49;;;;;;;12.45;9.07;;;7.70;99.90;;;;;;5072229;28;20024;-64
2021/12/15 12:41:20;;;;;;;14.10;9.75;;;7.70;99.90;;;;;;5072918;28;20028;-65
2021/12/15 12:43:49;;;;;;;12.10;8.63;;;7.80;99.90;;;;;;5072341;28;20104;-64
2021/12/15 12:46:34;;;;;;;12.85;8.75;;;7.80;99.90;;;;;;5072350;28;20032;-64
2021/12/15 13:00:18;;;;;;;9.07;7.65;;;7.80;99.90;;;;;;5072602;28;20451;-65
2021/12/15 13:02:48;;;;;;;12.73;8.05;;;7.80;99.90;;;;;;5088602;28;20154;-63
2021/12/15 13:05:38;;;;;;;12.45;8.00;;;7.80;99.90;;;;;;5092564;28;20020;-64
2021/12/15 13:08:09;;;;;;;11.68;8.65;;;7.90;99.90;;;;;;5089145;28;20506;-64
2021/12/15 13:10:55;;;;;;;10.27;8.60;;;7.80;99.90;;;;;;5092556;28;20061;-64
2021/12/15 13:13:24;;;;;;;12.23;8.98;;;7.90;99.90;;;;;;5091645;28;20392;-65
2021/12/15 13:16:03;;;;;;;11.15;8.40;;;7.90;99.90;;;;;;5091951;28;20020;-63
2021/12/15 13:18:53;;;;;;;9.88;7.47;;;7.90;99.90;;;;;;5092577;28;20111;-64
2021/12/15 13:21:37;;;;;;;10.90;8.50;;;7.90;99.90;;;;;;5092455;28;20031;-64
2021/12/15 13:24:08;;;;;;;11.50;8.25;;;7.80;99.90;;;;;;5092678;28;20020;-64
2021/12/15 13:29:47;;;;;;;10.20;7.93;;;7.80;99.90;;;;;;5091971;28;20043;-64
2021/12/15 13:32:13;;;;;;;10.07;8.05;;;7.80;99.90;;;;;;5092096;28;20027;-64
2021/12/15 13:34:43;;;;;;;13.55;8.48;;;7.90;99.90;;;;;;5091484;28;20024;-64
2021/12/15 13:37:09;;;;;;;10.77;8.65;;;7.80;99.90;;;;;;5091845;28;20024;-63
2021/12/15 13:39:46;;;;;;;9.70;7.82;;;7.80;99.90;;;;;;5090432;28;20375;-63
2021/12/15 13:42:15;;;;;;;12.25;7.85;;;7.80;99.90;;;;;;5092302;28;20016;-64
2021/12/15 13:44:47;;;;;;;10.85;7.63;;;7.80;99.90;;;;;;5091083;28;20028;-64
2021/12/15 13:47:21;;;;;;;10.20;8.25;;;7.80;99.90;;;;;;5091628;28;20162;-63
2021/12/15 13:50:02;;;;;;;9.57;7.70;;;7.80;99.90;;;;;;5091352;28;20469;-63
2021/12/15 13:52:44;;;;;;;11.00;8.07;;;7.80;99.90;;;;;;5091910;28;20033;-64
2021/12/15 13:55:13;;;;;;;12.30;8.90;;;7.80;99.90;;;;;;5091963;28;20024;-65
2021/12/15 13:58:00;;;;;;;9.50;8.00;;;7.80;99.90;;;;;;5091644;28;20413;-64
2021/12/15 14:00:26;;;;;;;9.80;8.13;;;7.80;99.90;;;;;;5091873;28;20024;-65
2021/12/15 14:02:57;;;;;;;14.82;9.13;;;7.80;99.90;;;;;;5091072;28;20028;-64
2021/12/15 14:05:31;;;;;;;10.68;8.43;;;7.80;99.90;;;;;;5091841;28;20055;-63
2021/12/15 14:08:10;;;;;;;18.10;8.98;;;7.80;99.90;;;;;;5090786;28;20430;-64
2021/12/15 14:10:36;;;;;;;13.23;9.38;;;7.80;99.90;;;;;;5091830;28;20032;-64
2021/12/15 14:13:05;;;;;;;11.07;8.32;;;7.70;99.90;;;;;;5090793;28;20028;-64
2021/12/15 14:15:43;;;;;;;11.35;7.93;;;7.70;99.90;;;;;;5091500;28;20376;-64
2021/12/15 14:18:11;;;;;;;11.68;8.15;;;7.70;99.90;;;;;;5092155;28;20043;-63
2021/12/15 14:20:42;;;;;;;9.70;8.40;;;7.70;99.90;;;;;;5091521;28;20024;-64
2021/12/15 14:23:13;;;;;;;13.20;9.35;;;7.70;99.90;;;;;;5092211;28;20020;-64
2021/12/15 14:25:39;;;;;;;;;;;7.70;99.90;;;;;;5091824;28;20032;-64
2021/12/15 14:28:14;;;;;;;11.63;8.85;;;7.70;99.90;;;;;;5090627;28;19916;-64
2021/12/15 14:30:43;;;;;;;11.73;8.57;;;7.60;99.90;;;;;;5091563;28;20025;-64